sensor_id;sensor_type;location;lat;lon;timestamp;P1;durP1;ratioP1;P2;durP2;ratioP2
59728;SDS011;45588;51.598;5.618;2024-01-30T00:01:33;27.50;;;14.40;;
59728;SDS011;45588;51.598;5.618;2024-01-30T00:03:58;23.20;;;13.15;;
59728;SDS011;45588;51.598;5.618;2024-01-30T00:06:24;26.87;;;13.67;;
59728;SDS011;45588;51.598;5.618;2024-01-30T00:08:49;27.98;;;12.95;;
59728;SDS011;45588;51.598;5.618;2024-01-30T00:11:14;26.77;;;13.93;;
59728;SDS011;45588;51.598;5.618;2024-01-30T00:13:40;25.92;;;12.75;;
59728;SDS011;45588;51.598;5.618;2024-01-30T00:16:05;28.05;;;13.02;;
59728;SDS011;45588;51.598;5.618;2024-01-30T00:18:30;24.15;;;13.30;;
59728;SDS011;45588;51.598;5.618;2024-01-30T00:20:55;25.17;;;13.93;;
59728;SDS011;45588;51.598;5.618;2024-01-30T00:23:20;25.27;;;13.68;;
59728;SDS011;45588;51.598;5.618;2024-01-30T00:25:46;26.00;;;14.93;;
59728;SDS011;45588;51.598;5.618;2024-01-30T00:28:11;29.07;;;14.00;;
59728;SDS011;45588;51.598;5.618;2024-01-30T00:30:36;31.70;;;14.07;;
59728;SDS011;45588;51.598;5.618;2024-01-30T00:33:01;34.57;;;26.03;;
59728;SDS011;45588;51.598;5.618;2024-01-30T00:35:26;22.63;;;13.40;;
59728;SDS011;45588;51.598;5.618;2024-01-30T00:37:52;27.13;;;13.95;;
59728;SDS011;45588;51.598;5.618;2024-01-30T00:40:17;33.43;;;15.83;;
59728;SDS011;45588;51.598;5.618;2024-01-30T00:42:43;26.70;;;14.52;;
59728;SDS011;45588;51.598;5.618;2024-01-30T00:45:12;29.42;;;14.02;;
59728;SDS011;45588;51.598;5.618;2024-01-30T00:47:37;28.80;;;13.80;;
59728;SDS011;45588;51.598;5.618;2024-01-30T00:50:02;34.97;;;14.53;;
59728;SDS011;45588;51.598;5.618;2024-01-30T00:52:27;30.30;;;14.80;;
59728;SDS011;45588;51.598;5.618;2024-01-30T00:54:52;27.70;;;14.40;;
59728;SDS011;45588;51.598;5.618;2024-01-30T00:57:18;27.70;;;14.97;;
59728;SDS011;45588;51.598;5.618;2024-01-30T00:59:43;28.15;;;13.70;;
59728;SDS011;45588;51.598;5.618;2024-01-30T01:02:08;28.10;;;13.53;;
59728;SDS011;45588;51.598;5.618;2024-01-30T01:04:33;32.43;;;15.73;;
59728;SDS011;45588;51.598;5.618;2024-01-30T01:06:58;31.40;;;15.83;;
59728;SDS011;45588;51.598;5.618;2024-01-30T01:09:23;27.02;;;13.55;;
59728;SDS011;45588;51.598;5.618;2024-01-30T01:11:49;26.88;;;13.25;;
59728;SDS011;45588;51.598;5.618;2024-01-30T01:14:14;26.85;;;14.18;;
59728;SDS011;45588;51.598;5.618;2024-01-30T01:16:39;24.55;;;13.23;;
59728;SDS011;45588;51.598;5.618;2024-01-30T01:19:04;31.43;;;13.03;;
59728;SDS011;45588;51.598;5.618;2024-01-30T01:21:29;27.90;;;14.17;;
59728;SDS011;45588;51.598;5.618;2024-01-30T01:23:55;37.47;;;14.60;;
59728;SDS011;45588;51.598;5.618;2024-01-30T01:26:20;26.20;;;14.83;;
59728;SDS011;45588;51.598;5.618;2024-01-30T01:28:46;30.63;;;14.55;;
59728;SDS011;45588;51.598;5.618;2024-01-30T01:31:11;27.73;;;14.15;;
59728;SDS011;45588;51.598;5.618;2024-01-30T01:33:36;29.38;;;15.50;;
59728;SDS011;45588;51.598;5.618;2024-01-30T01:36:02;33.83;;;15.93;;
59728;SDS011;45588;51.598;5.618;2024-01-30T01:38:28;24.00;;;13.93;;
59728;SDS011;45588;51.598;5.618;2024-01-30T01:40:53;33.70;;;15.55;;
59728;SDS011;45588;51.598;5.618;2024-01-30T01:43:18;31.83;;;15.80;;
59728;SDS011;45588;51.598;5.618;2024-01-30T01:45:44;29.85;;;15.13;;
59728;SDS011;45588;51.598;5.618;2024-01-30T01:48:09;32.08;;;15.80;;
59728;SDS011;45588;51.598;5.618;2024-01-30T01:50:35;27.85;;;15.45;;
59728;SDS011;45588;51.598;5.618;2024-01-30T01:53:01;30.95;;;16.35;;
59728;SDS011;45588;51.598;5.618;2024-01-30T01:55:26;33.15;;;17.13;;
59728;SDS011;45588;51.598;5.618;2024-01-30T01:57:53;30.95;;;16.30;;
59728;SDS011;45588;51.598;5.618;2024-01-30T02:00:19;28.98;;;16.00;;
59728;SDS011;45588;51.598;5.618;2024-01-30T02:02:45;32.40;;;16.02;;
59728;SDS011;45588;51.598;5.618;2024-01-30T02:05:10;27.25;;;13.90;;
59728;SDS011;45588;51.598;5.618;2024-01-30T02:07:36;32.28;;;16.90;;
59728;SDS011;45588;51.598;5.618;2024-01-30T02:10:01;32.42;;;16.25;;
59728;SDS011;45588;51.598;5.618;2024-01-30T02:12:26;30.58;;;15.25;;
59728;SDS011;45588;51.598;5.618;2024-01-30T02:14:51;31.92;;;15.20;;
59728;SDS011;45588;51.598;5.618;2024-01-30T02:17:16;40.30;;;29.65;;
59728;SDS011;45588;51.598;5.618;2024-01-30T02:19:42;25.27;;;14.95;;
59728;SDS011;45588;51.598;5.618;2024-01-30T02:22:07;32.45;;;16.88;;
59728;SDS011;45588;51.598;5.618;2024-01-30T02:24:33;30.63;;;14.88;;
59728;SDS011;45588;51.598;5.618;2024-01-30T02:26:58;31.02;;;17.27;;
59728;SDS011;45588;51.598;5.618;2024-01-30T02:29:23;33.15;;;15.93;;
59728;SDS011;45588;51.598;5.618;2024-01-30T02:31:48;37.28;;;17.35;;
59728;SDS011;45588;51.598;5.618;2024-01-30T02:34:14;31.48;;;16.52;;
59728;SDS011;45588;51.598;5.618;2024-01-30T02:36:42;42.50;;;18.83;;
59728;SDS011;45588;51.598;5.618;2024-01-30T02:39:07;43.08;;;18.08;;
59728;SDS011;45588;51.598;5.618;2024-01-30T02:41:32;51.92;;;36.95;;
59728;SDS011;45588;51.598;5.618;2024-01-30T02:43:57;39.97;;;18.63;;
59728;SDS011;45588;51.598;5.618;2024-01-30T02:46:22;37.75;;;17.65;;
59728;SDS011;45588;51.598;5.618;2024-01-30T02:48:48;41.97;;;19.60;;
59728;SDS011;45588;51.598;5.618;2024-01-30T02:51:13;54.67;;;21.27;;
59728;SDS011;45588;51.598;5.618;2024-01-30T02:53:38;44.60;;;21.93;;
59728;SDS011;45588;51.598;5.618;2024-01-30T02:56:03;47.20;;;19.53;;
59728;SDS011;45588;51.598;5.618;2024-01-30T02:58:29;46.47;;;20.25;;
59728;SDS011;45588;51.598;5.618;2024-01-30T03:00:54;39.63;;;19.98;;
59728;SDS011;45588;51.598;5.618;2024-01-30T03:03:19;42.57;;;21.63;;
59728;SDS011;45588;51.598;5.618;2024-01-30T03:05:44;51.25;;;22.05;;
59728;SDS011;45588;51.598;5.618;2024-01-30T03:08:09;39.33;;;20.30;;
59728;SDS011;45588;51.598;5.618;2024-01-30T03:10:35;36.63;;;19.23;;
59728;SDS011;45588;51.598;5.618;2024-01-30T03:13:00;49.08;;;35.13;;
59728;SDS011;45588;51.598;5.618;2024-01-30T03:15:25;33.37;;;16.57;;
59728;SDS011;45588;51.598;5.618;2024-01-30T03:17:50;39.80;;;18.05;;
59728;SDS011;45588;51.598;5.618;2024-01-30T03:20:15;27.00;;;15.20;;
59728;SDS011;45588;51.598;5.618;2024-01-30T03:22:41;29.30;;;15.02;;
59728;SDS011;45588;51.598;5.618;2024-01-30T03:25:06;31.37;;;16.37;;
59728;SDS011;45588;51.598;5.618;2024-01-30T03:27:31;30.83;;;15.57;;
59728;SDS011;45588;51.598;5.618;2024-01-30T03:29:56;29.85;;;14.57;;
59728;SDS011;45588;51.598;5.618;2024-01-30T03:32:22;30.63;;;15.38;;
59728;SDS011;45588;51.598;5.618;2024-01-30T03:34:47;26.10;;;14.75;;
59728;SDS011;45588;51.598;5.618;2024-01-30T03:37:12;31.63;;;15.00;;
59728;SDS011;45588;51.598;5.618;2024-01-30T03:39:37;32.20;;;14.63;;
59728;SDS011;45588;51.598;5.618;2024-01-30T03:42:02;33.07;;;15.17;;
59728;SDS011;45588;51.598;5.618;2024-01-30T03:44:28;30.33;;;14.18;;
59728;SDS011;45588;51.598;5.618;2024-01-30T03:46:53;29.95;;;13.48;;
59728;SDS011;45588;51.598;5.618;2024-01-30T03:49:18;26.67;;;14.15;;
59728;SDS011;45588;51.598;5.618;2024-01-30T03:51:43;28.92;;;14.75;;
59728;SDS011;45588;51.598;5.618;2024-01-30T03:54:09;27.23;;;14.85;;
59728;SDS011;45588;51.598;5.618;2024-01-30T03:56:34;33.08;;;15.23;;
59728;SDS011;45588;51.598;5.618;2024-01-30T03:59:00;31.10;;;15.40;;
59728;SDS011;45588;51.598;5.618;2024-01-30T04:01:25;27.60;;;13.70;;
59728;SDS011;45588;51.598;5.618;2024-01-30T04:03:50;27.70;;;14.18;;
59728;SDS011;45588;51.598;5.618;2024-01-30T04:06:16;30.50;;;12.90;;
59728;SDS011;45588;51.598;5.618;2024-01-30T04:08:41;25.48;;;13.95;;
59728;SDS011;45588;51.598;5.618;2024-01-30T04:11:07;25.88;;;13.10;;
59728;SDS011;45588;51.598;5.618;2024-01-30T04:13:32;29.15;;;13.13;;
59728;SDS011;45588;51.598;5.618;2024-01-30T04:15:59;26.27;;;12.93;;
59728;SDS011;45588;51.598;5.618;2024-01-30T04:18:24;27.88;;;14.05;;
59728;SDS011;45588;51.598;5.618;2024-01-30T04:20:49;26.77;;;13.23;;
59728;SDS011;45588;51.598;5.618;2024-01-30T04:23:14;22.20;;;12.50;;
59728;SDS011;45588;51.598;5.618;2024-01-30T04:25:39;24.37;;;13.10;;
59728;SDS011;45588;51.598;5.618;2024-01-30T04:28:05;28.98;;;13.40;;
59728;SDS011;45588;51.598;5.618;2024-01-30T04:30:30;28.25;;;14.52;;
59728;SDS011;45588;51.598;5.618;2024-01-30T04:32:55;27.85;;;12.88;;
59728;SDS011;45588;51.598;5.618;2024-01-30T04:35:20;23.77;;;13.47;;
59728;SDS011;45588;51.598;5.618;2024-01-30T04:37:48;26.50;;;12.55;;
59728;SDS011;45588;51.598;5.618;2024-01-30T04:40:13;24.27;;;13.47;;
59728;SDS011;45588;51.598;5.618;2024-01-30T04:42:38;27.90;;;12.85;;
59728;SDS011;45588;51.598;5.618;2024-01-30T04:45:05;27.30;;;13.07;;
59728;SDS011;45588;51.598;5.618;2024-01-30T04:47:30;21.70;;;11.52;;
59728;SDS011;45588;51.598;5.618;2024-01-30T04:49:55;23.87;;;12.20;;
59728;SDS011;45588;51.598;5.618;2024-01-30T04:52:20;26.00;;;12.53;;
59728;SDS011;45588;51.598;5.618;2024-01-30T04:54:45;26.37;;;12.23;;
59728;SDS011;45588;51.598;5.618;2024-01-30T04:57:11;24.75;;;13.02;;
59728;SDS011;45588;51.598;5.618;2024-01-30T04:59:37;26.08;;;12.65;;
59728;SDS011;45588;51.598;5.618;2024-01-30T05:02:02;23.50;;;13.18;;
59728;SDS011;45588;51.598;5.618;2024-01-30T05:04:27;29.20;;;13.77;;
59728;SDS011;45588;51.598;5.618;2024-01-30T05:06:52;27.67;;;13.63;;
59728;SDS011;45588;51.598;5.618;2024-01-30T05:09:18;24.00;;;12.13;;
59728;SDS011;45588;51.598;5.618;2024-01-30T05:11:43;23.38;;;11.75;;
59728;SDS011;45588;51.598;5.618;2024-01-30T05:14:09;22.27;;;12.17;;
59728;SDS011;45588;51.598;5.618;2024-01-30T05:16:34;29.02;;;23.00;;
59728;SDS011;45588;51.598;5.618;2024-01-30T05:19:00;22.83;;;12.40;;
59728;SDS011;45588;51.598;5.618;2024-01-30T05:21:25;20.50;;;10.88;;
59728;SDS011;45588;51.598;5.618;2024-01-30T05:23:50;29.57;;;12.47;;
59728;SDS011;45588;51.598;5.618;2024-01-30T05:26:15;21.73;;;11.07;;
59728;SDS011;45588;51.598;5.618;2024-01-30T05:28:40;26.52;;;11.93;;
59728;SDS011;45588;51.598;5.618;2024-01-30T05:31:06;19.33;;;10.57;;
59728;SDS011;45588;51.598;5.618;2024-01-30T05:33:31;20.45;;;11.55;;
59728;SDS011;45588;51.598;5.618;2024-01-30T05:35:56;26.98;;;11.02;;
59728;SDS011;45588;51.598;5.618;2024-01-30T05:38:21;31.25;;;15.05;;
59728;SDS011;45588;51.598;5.618;2024-01-30T05:40:46;17.15;;;9.68;;
59728;SDS011;45588;51.598;5.618;2024-01-30T05:43:12;18.02;;;10.27;;
59728;SDS011;45588;51.598;5.618;2024-01-30T05:45:37;25.33;;;12.15;;
59728;SDS011;45588;51.598;5.618;2024-01-30T05:48:02;29.47;;;12.03;;
59728;SDS011;45588;51.598;5.618;2024-01-30T05:50:28;20.35;;;10.23;;
59728;SDS011;45588;51.598;5.618;2024-01-30T05:52:53;21.20;;;11.03;;
59728;SDS011;45588;51.598;5.618;2024-01-30T05:55:18;24.27;;;19.65;;
59728;SDS011;45588;51.598;5.618;2024-01-30T05:57:43;19.45;;;9.98;;
59728;SDS011;45588;51.598;5.618;2024-01-30T06:00:08;27.03;;;11.27;;
59728;SDS011;45588;51.598;5.618;2024-01-30T06:02:34;20.33;;;10.63;;
59728;SDS011;45588;51.598;5.618;2024-01-30T06:04:59;20.10;;;10.63;;
59728;SDS011;45588;51.598;5.618;2024-01-30T06:07:24;21.50;;;11.07;;
59728;SDS011;45588;51.598;5.618;2024-01-30T06:09:49;21.70;;;10.70;;
59728;SDS011;45588;51.598;5.618;2024-01-30T06:12:14;22.17;;;11.10;;
59728;SDS011;45588;51.598;5.618;2024-01-30T06:14:40;22.73;;;12.32;;
59728;SDS011;45588;51.598;5.618;2024-01-30T06:17:07;21.05;;;11.35;;
59728;SDS011;45588;51.598;5.618;2024-01-30T06:19:32;21.23;;;12.23;;
59728;SDS011;45588;51.598;5.618;2024-01-30T06:21:57;20.03;;;11.00;;
59728;SDS011;45588;51.598;5.618;2024-01-30T06:24:22;21.35;;;11.13;;
59728;SDS011;45588;51.598;5.618;2024-01-30T06:26:48;19.63;;;9.95;;
59728;SDS011;45588;51.598;5.618;2024-01-30T06:29:13;22.33;;;11.77;;
59728;SDS011;45588;51.598;5.618;2024-01-30T06:31:40;19.52;;;10.63;;
59728;SDS011;45588;51.598;5.618;2024-01-30T06:34:06;25.85;;;11.48;;
59728;SDS011;45588;51.598;5.618;2024-01-30T06:36:31;20.02;;;10.85;;
59728;SDS011;45588;51.598;5.618;2024-01-30T06:38:56;21.50;;;10.50;;
59728;SDS011;45588;51.598;5.618;2024-01-30T06:41:21;20.63;;;10.63;;
59728;SDS011;45588;51.598;5.618;2024-01-30T06:43:47;17.80;;;9.38;;
59728;SDS011;45588;51.598;5.618;2024-01-30T06:46:12;23.38;;;11.02;;
59728;SDS011;45588;51.598;5.618;2024-01-30T06:48:37;23.73;;;10.75;;
59728;SDS011;45588;51.598;5.618;2024-01-30T06:51:05;16.25;;;10.30;;
59728;SDS011;45588;51.598;5.618;2024-01-30T06:53:30;27.00;;;20.37;;
59728;SDS011;45588;51.598;5.618;2024-01-30T06:55:55;21.80;;;10.80;;
59728;SDS011;45588;51.598;5.618;2024-01-30T06:58:20;19.07;;;10.17;;
59728;SDS011;45588;51.598;5.618;2024-01-30T07:00:45;21.77;;;10.50;;
59728;SDS011;45588;51.598;5.618;2024-01-30T07:03:11;24.73;;;11.07;;
59728;SDS011;45588;51.598;5.618;2024-01-30T07:05:36;17.70;;;10.47;;
59728;SDS011;45588;51.598;5.618;2024-01-30T07:08:04;23.45;;;11.18;;
59728;SDS011;45588;51.598;5.618;2024-01-30T07:10:29;22.48;;;11.55;;
59728;SDS011;45588;51.598;5.618;2024-01-30T07:12:56;20.58;;;11.05;;
59728;SDS011;45588;51.598;5.618;2024-01-30T07:15:21;17.23;;;9.98;;
59728;SDS011;45588;51.598;5.618;2024-01-30T07:17:46;17.75;;;9.88;;
59728;SDS011;45588;51.598;5.618;2024-01-30T07:20:12;23.20;;;10.93;;
59728;SDS011;45588;51.598;5.618;2024-01-30T07:22:37;21.42;;;9.13;;
59728;SDS011;45588;51.598;5.618;2024-01-30T07:25:02;19.65;;;9.85;;
59728;SDS011;45588;51.598;5.618;2024-01-30T07:27:27;18.83;;;9.73;;
59728;SDS011;45588;51.598;5.618;2024-01-30T07:29:53;21.20;;;10.80;;
59728;SDS011;45588;51.598;5.618;2024-01-30T07:32:18;17.38;;;9.20;;
59728;SDS011;45588;51.598;5.618;2024-01-30T07:34:43;25.63;;;10.70;;
59728;SDS011;45588;51.598;5.618;2024-01-30T07:37:09;22.65;;;11.10;;
59728;SDS011;45588;51.598;5.618;2024-01-30T07:39:35;17.77;;;8.60;;
59728;SDS011;45588;51.598;5.618;2024-01-30T07:42:00;24.98;;;10.63;;
59728;SDS011;45588;51.598;5.618;2024-01-30T07:44:26;18.70;;;9.57;;
59728;SDS011;45588;51.598;5.618;2024-01-30T07:46:51;18.20;;;10.38;;
59728;SDS011;45588;51.598;5.618;2024-01-30T07:49:16;16.05;;;9.13;;
59728;SDS011;45588;51.598;5.618;2024-01-30T07:51:41;16.03;;;9.70;;
59728;SDS011;45588;51.598;5.618;2024-01-30T07:54:15;21.02;;;9.70;;
59728;SDS011;45588;51.598;5.618;2024-01-30T07:56:41;20.08;;;9.20;;
59728;SDS011;45588;51.598;5.618;2024-01-30T07:59:09;23.70;;;10.00;;
59728;SDS011;45588;51.598;5.618;2024-01-30T08:01:34;20.13;;;9.93;;
59728;SDS011;45588;51.598;5.618;2024-01-30T08:03:59;17.38;;;9.05;;
59728;SDS011;45588;51.598;5.618;2024-01-30T08:06:24;21.57;;;9.60;;
59728;SDS011;45588;51.598;5.618;2024-01-30T08:08:50;17.30;;;9.63;;
59728;SDS011;45588;51.598;5.618;2024-01-30T08:11:18;22.73;;;9.93;;
59728;SDS011;45588;51.598;5.618;2024-01-30T08:13:44;20.85;;;9.57;;
59728;SDS011;45588;51.598;5.618;2024-01-30T08:16:09;17.73;;;9.77;;
59728;SDS011;45588;51.598;5.618;2024-01-30T08:18:35;18.92;;;10.77;;
59728;SDS011;45588;51.598;5.618;2024-01-30T08:21:00;19.17;;;9.43;;
59728;SDS011;45588;51.598;5.618;2024-01-30T08:23:25;17.25;;;9.82;;
59728;SDS011;45588;51.598;5.618;2024-01-30T08:25:50;17.80;;;9.75;;
59728;SDS011;45588;51.598;5.618;2024-01-30T08:28:16;16.23;;;10.07;;
59728;SDS011;45588;51.598;5.618;2024-01-30T08:30:41;17.00;;;9.60;;
59728;SDS011;45588;51.598;5.618;2024-01-30T08:33:06;20.15;;;9.80;;
59728;SDS011;45588;51.598;5.618;2024-01-30T08:35:31;20.92;;;10.85;;
59728;SDS011;45588;51.598;5.618;2024-01-30T08:37:58;18.13;;;9.65;;
59728;SDS011;45588;51.598;5.618;2024-01-30T08:40:23;19.60;;;9.65;;
59728;SDS011;45588;51.598;5.618;2024-01-30T08:42:48;19.65;;;9.68;;
59728;SDS011;45588;51.598;5.618;2024-01-30T08:45:14;24.17;;;10.20;;
59728;SDS011;45588;51.598;5.618;2024-01-30T08:47:40;23.35;;;10.82;;
59728;SDS011;45588;51.598;5.618;2024-01-30T08:50:05;19.85;;;10.63;;
59728;SDS011;45588;51.598;5.618;2024-01-30T08:52:30;17.27;;;9.90;;
59728;SDS011;45588;51.598;5.618;2024-01-30T08:54:55;22.27;;;10.23;;
59728;SDS011;45588;51.598;5.618;2024-01-30T08:57:21;22.43;;;10.17;;
59728;SDS011;45588;51.598;5.618;2024-01-30T08:59:46;20.23;;;10.38;;
59728;SDS011;45588;51.598;5.618;2024-01-30T09:02:11;21.00;;;9.95;;
59728;SDS011;45588;51.598;5.618;2024-01-30T09:04:38;19.08;;;10.70;;
59728;SDS011;45588;51.598;5.618;2024-01-30T09:07:03;18.08;;;10.27;;
59728;SDS011;45588;51.598;5.618;2024-01-30T09:09:30;20.98;;;10.38;;
59728;SDS011;45588;51.598;5.618;2024-01-30T09:11:56;21.42;;;9.93;;
59728;SDS011;45588;51.598;5.618;2024-01-30T09:14:23;20.85;;;11.70;;
59728;SDS011;45588;51.598;5.618;2024-01-30T09:16:48;17.10;;;10.63;;
59728;SDS011;45588;51.598;5.618;2024-01-30T09:19:14;23.45;;;17.77;;
59728;SDS011;45588;51.598;5.618;2024-01-30T09:21:39;22.15;;;10.98;;
59728;SDS011;45588;51.598;5.618;2024-01-30T09:24:04;20.60;;;10.60;;
59728;SDS011;45588;51.598;5.618;2024-01-30T09:26:29;19.50;;;9.68;;
59728;SDS011;45588;51.598;5.618;2024-01-30T09:28:55;24.50;;;11.20;;
59728;SDS011;45588;51.598;5.618;2024-01-30T09:31:20;21.10;;;10.87;;
59728;SDS011;45588;51.598;5.618;2024-01-30T09:33:45;20.50;;;10.37;;
59728;SDS011;45588;51.598;5.618;2024-01-30T09:36:12;20.27;;;10.68;;
59728;SDS011;45588;51.598;5.618;2024-01-30T09:38:40;17.45;;;9.70;;
59728;SDS011;45588;51.598;5.618;2024-01-30T09:41:05;22.27;;;10.20;;
59728;SDS011;45588;51.598;5.618;2024-01-30T09:43:32;23.42;;;11.68;;
59728;SDS011;45588;51.598;5.618;2024-01-30T09:45:58;23.27;;;11.73;;
59728;SDS011;45588;51.598;5.618;2024-01-30T09:48:24;20.70;;;11.80;;
59728;SDS011;45588;51.598;5.618;2024-01-30T09:50:50;22.30;;;10.15;;
59728;SDS011;45588;51.598;5.618;2024-01-30T09:53:16;21.85;;;10.13;;
59728;SDS011;45588;51.598;5.618;2024-01-30T09:55:42;25.40;;;12.15;;
59728;SDS011;45588;51.598;5.618;2024-01-30T09:58:08;20.73;;;10.32;;
59728;SDS011;45588;51.598;5.618;2024-01-30T10:00:33;18.25;;;9.35;;
59728;SDS011;45588;51.598;5.618;2024-01-30T10:02:58;25.23;;;11.40;;
59728;SDS011;45588;51.598;5.618;2024-01-30T10:05:23;20.98;;;10.18;;
59728;SDS011;45588;51.598;5.618;2024-01-30T10:07:55;24.67;;;9.85;;
59728;SDS011;45588;51.598;5.618;2024-01-30T10:10:23;23.98;;;11.32;;
59728;SDS011;45588;51.598;5.618;2024-01-30T10:12:49;19.25;;;10.35;;
59728;SDS011;45588;51.598;5.618;2024-01-30T10:15:14;26.80;;;11.15;;
59728;SDS011;45588;51.598;5.618;2024-01-30T10:17:39;21.02;;;9.95;;
59728;SDS011;45588;51.598;5.618;2024-01-30T10:20:05;19.40;;;10.33;;
59728;SDS011;45588;51.598;5.618;2024-01-30T10:22:30;20.92;;;10.93;;
59728;SDS011;45588;51.598;5.618;2024-01-30T10:24:55;22.38;;;9.85;;
59728;SDS011;45588;51.598;5.618;2024-01-30T10:27:25;27.33;;;10.38;;
59728;SDS011;45588;51.598;5.618;2024-01-30T10:29:50;17.92;;;9.30;;
59728;SDS011;45588;51.598;5.618;2024-01-30T10:32:16;21.58;;;10.60;;
59728;SDS011;45588;51.598;5.618;2024-01-30T10:34:42;25.50;;;11.55;;
59728;SDS011;45588;51.598;5.618;2024-01-30T10:37:09;23.75;;;10.63;;
59728;SDS011;45588;51.598;5.618;2024-01-30T10:39:40;25.90;;;17.00;;
59728;SDS011;45588;51.598;5.618;2024-01-30T10:42:06;25.58;;;10.80;;
59728;SDS011;45588;51.598;5.618;2024-01-30T10:44:35;20.88;;;11.13;;
59728;SDS011;45588;51.598;5.618;2024-01-30T10:47:03;21.55;;;10.00;;
59728;SDS011;45588;51.598;5.618;2024-01-30T10:49:31;19.55;;;10.05;;
59728;SDS011;45588;51.598;5.618;2024-01-30T10:51:57;23.35;;;10.93;;
59728;SDS011;45588;51.598;5.618;2024-01-30T10:54:23;16.92;;;10.30;;
59728;SDS011;45588;51.598;5.618;2024-01-30T10:56:49;24.52;;;10.98;;
59728;SDS011;45588;51.598;5.618;2024-01-30T10:59:15;21.50;;;11.15;;
59728;SDS011;45588;51.598;5.618;2024-01-30T11:01:40;23.00;;;10.00;;
59728;SDS011;45588;51.598;5.618;2024-01-30T11:04:05;22.88;;;9.95;;
59728;SDS011;45588;51.598;5.618;2024-01-30T11:06:32;25.05;;;12.85;;
59728;SDS011;45588;51.598;5.618;2024-01-30T11:09:05;26.95;;;13.00;;
59728;SDS011;45588;51.598;5.618;2024-01-30T11:11:51;26.75;;;11.77;;
59728;SDS011;45588;51.598;5.618;2024-01-30T11:14:16;22.35;;;11.05;;
59728;SDS011;45588;51.598;5.618;2024-01-30T11:16:42;20.38;;;10.05;;
59728;SDS011;45588;51.598;5.618;2024-01-30T11:19:10;18.70;;;10.27;;
59728;SDS011;45588;51.598;5.618;2024-01-30T11:21:41;23.27;;;11.75;;
59728;SDS011;45588;51.598;5.618;2024-01-30T11:24:06;25.73;;;11.15;;
59728;SDS011;45588;51.598;5.618;2024-01-30T11:26:32;28.17;;;13.48;;
59728;SDS011;45588;51.598;5.618;2024-01-30T11:28:57;23.92;;;10.52;;
59728;SDS011;45588;51.598;5.618;2024-01-30T11:31:23;29.10;;;18.63;;
59728;SDS011;45588;51.598;5.618;2024-01-30T11:33:48;20.43;;;10.70;;
59728;SDS011;45588;51.598;5.618;2024-01-30T11:36:17;28.40;;;11.45;;
59728;SDS011;45588;51.598;5.618;2024-01-30T11:38:43;32.83;;;19.63;;
59728;SDS011;45588;51.598;5.618;2024-01-30T11:41:10;28.77;;;11.75;;
59728;SDS011;45588;51.598;5.618;2024-01-30T11:43:35;21.13;;;12.00;;
59728;SDS011;45588;51.598;5.618;2024-01-30T11:46:00;36.63;;;14.68;;
59728;SDS011;45588;51.598;5.618;2024-01-30T11:48:25;28.20;;;12.82;;
59728;SDS011;45588;51.598;5.618;2024-01-30T11:50:51;24.35;;;12.85;;
59728;SDS011;45588;51.598;5.618;2024-01-30T11:53:16;30.33;;;19.60;;
59728;SDS011;45588;51.598;5.618;2024-01-30T11:55:42;28.38;;;12.43;;
59728;SDS011;45588;51.598;5.618;2024-01-30T11:58:08;28.70;;;12.10;;
59728;SDS011;45588;51.598;5.618;2024-01-30T12:00:33;25.40;;;12.32;;
59728;SDS011;45588;51.598;5.618;2024-01-30T12:02:58;23.50;;;10.48;;
59728;SDS011;45588;51.598;5.618;2024-01-30T12:05:25;22.48;;;10.95;;
59728;SDS011;45588;51.598;5.618;2024-01-30T12:07:51;23.58;;;8.77;;
59728;SDS011;45588;51.598;5.618;2024-01-30T12:10:17;15.20;;;8.48;;
59728;SDS011;45588;51.598;5.618;2024-01-30T12:12:45;18.48;;;8.25;;
59728;SDS011;45588;51.598;5.618;2024-01-30T12:15:11;22.08;;;11.20;;
59728;SDS011;45588;51.598;5.618;2024-01-30T12:17:37;13.48;;;7.22;;
59728;SDS011;45588;51.598;5.618;2024-01-30T12:20:03;14.63;;;7.07;;
59728;SDS011;45588;51.598;5.618;2024-01-30T12:22:28;20.10;;;8.45;;
59728;SDS011;45588;51.598;5.618;2024-01-30T12:24:53;16.53;;;7.60;;
59728;SDS011;45588;51.598;5.618;2024-01-30T12:27:18;16.20;;;7.67;;
59728;SDS011;45588;51.598;5.618;2024-01-30T12:29:44;17.25;;;8.82;;
59728;SDS011;45588;51.598;5.618;2024-01-30T12:32:14;19.50;;;12.23;;
59728;SDS011;45588;51.598;5.618;2024-01-30T12:34:42;14.33;;;6.60;;
59728;SDS011;45588;51.598;5.618;2024-01-30T12:37:07;14.48;;;5.38;;
59728;SDS011;45588;51.598;5.618;2024-01-30T12:39:34;8.80;;;5.50;;
59728;SDS011;45588;51.598;5.618;2024-01-30T12:42:00;12.30;;;4.97;;
59728;SDS011;45588;51.598;5.618;2024-01-30T12:44:25;10.38;;;4.72;;
59728;SDS011;45588;51.598;5.618;2024-01-30T12:46:50;9.00;;;4.82;;
59728;SDS011;45588;51.598;5.618;2024-01-30T12:49:16;11.10;;;4.55;;
59728;SDS011;45588;51.598;5.618;2024-01-30T12:51:41;7.13;;;4.50;;
59728;SDS011;45588;51.598;5.618;2024-01-30T12:54:06;8.98;;;3.60;;
59728;SDS011;45588;51.598;5.618;2024-01-30T12:56:32;10.27;;;3.88;;
59728;SDS011;45588;51.598;5.618;2024-01-30T12:58:57;7.30;;;3.47;;
59728;SDS011;45588;51.598;5.618;2024-01-30T13:01:22;7.33;;;3.70;;
59728;SDS011;45588;51.598;5.618;2024-01-30T13:03:48;11.50;;;5.05;;
59728;SDS011;45588;51.598;5.618;2024-01-30T13:06:13;3.40;;;2.47;;
59728;SDS011;45588;51.598;5.618;2024-01-30T13:08:38;3.72;;;2.53;;
59728;SDS011;45588;51.598;5.618;2024-01-30T13:11:03;5.60;;;2.27;;
59728;SDS011;45588;51.598;5.618;2024-01-30T13:13:28;7.82;;;2.67;;
59728;SDS011;45588;51.598;5.618;2024-01-30T13:15:54;11.83;;;4.60;;
59728;SDS011;45588;51.598;5.618;2024-01-30T13:18:19;4.22;;;2.90;;
59728;SDS011;45588;51.598;5.618;2024-01-30T13:20:45;5.65;;;2.40;;
59728;SDS011;45588;51.598;5.618;2024-01-30T13:23:10;6.53;;;2.97;;
59728;SDS011;45588;51.598;5.618;2024-01-30T13:25:35;5.20;;;2.60;;
59728;SDS011;45588;51.598;5.618;2024-01-30T13:28:01;4.87;;;2.20;;
59728;SDS011;45588;51.598;5.618;2024-01-30T13:30:26;5.95;;;2.00;;
59728;SDS011;45588;51.598;5.618;2024-01-30T13:32:51;4.77;;;2.13;;
59728;SDS011;45588;51.598;5.618;2024-01-30T13:35:16;8.93;;;3.40;;
59728;SDS011;45588;51.598;5.618;2024-01-30T13:37:42;6.30;;;2.73;;
59728;SDS011;45588;51.598;5.618;2024-01-30T13:40:07;4.47;;;2.53;;
59728;SDS011;45588;51.598;5.618;2024-01-30T13:42:32;12.90;;;3.30;;
59728;SDS011;45588;51.598;5.618;2024-01-30T13:44:58;7.40;;;3.17;;
59728;SDS011;45588;51.598;5.618;2024-01-30T13:47:23;4.60;;;2.35;;
59728;SDS011;45588;51.598;5.618;2024-01-30T13:49:48;5.00;;;2.78;;
59728;SDS011;45588;51.598;5.618;2024-01-30T13:52:13;6.30;;;3.20;;
59728;SDS011;45588;51.598;5.618;2024-01-30T13:54:38;9.37;;;3.13;;
59728;SDS011;45588;51.598;5.618;2024-01-30T13:57:04;4.77;;;3.00;;
59728;SDS011;45588;51.598;5.618;2024-01-30T13:59:29;6.43;;;3.30;;
59728;SDS011;45588;51.598;5.618;2024-01-30T14:01:54;6.83;;;3.97;;
59728;SDS011;45588;51.598;5.618;2024-01-30T14:04:19;10.53;;;4.90;;
59728;SDS011;45588;51.598;5.618;2024-01-30T14:06:45;11.88;;;4.50;;
59728;SDS011;45588;51.598;5.618;2024-01-30T14:09:10;7.70;;;3.57;;
59728;SDS011;45588;51.598;5.618;2024-01-30T14:11:36;9.35;;;5.47;;
59728;SDS011;45588;51.598;5.618;2024-01-30T14:14:01;8.80;;;4.18;;
59728;SDS011;45588;51.598;5.618;2024-01-30T14:16:26;10.10;;;4.10;;